Homer, IL (61849)

8:48 PM CST on November 26, 2014 (GMT -0600)
KC9RHK | Change Station
CLOSE
Current Station
Personal Weather Station
Location: Saint Joseph, IL
Elevation: 682 ft
Nearby Weather Stations

Elev 682 ft 40.11 °N, 88.03 °W | Updated 11 seconds ago

Overcast
Overcast
28.5 °F
Feels Like 22 °F
N
6.0
Wind Variable Wind from NNE
Gusts 6.0 mph

Today
High -- | Low -- °F
--% Chance of Precip.
Yesterday
High -- | Low -- °F
Precip. -- in
6:49 AM 4:28 PM
Waxing Crescent, 25% visible
Pressure 30.14 in
Visibility 3.0 miles
Clouds Overcast 4200 ft
Windchill 22 °F
Dew Point 23 °F
Humidity 81%
Rainfall 0.00 in
Snow Depth Not available.
UV 0 out of 12
Pollen .10 out of 12
Air Quality Not available.
Flu Activity Not available.
METAR KCMI 270153Z 02010KT 3SM -SN BR OVC042 M02/M04 A3010 RMK AO2 SNB30 SLP204 P0000 T10171039 $

More Conditions Fewer Conditions

Pressure 30.14 in
Visibility 3.0 miles
Clouds Overcast 4200 ft
Windchill 22 °F
Dew Point 23 °F
Humidity 81%
Rainfall 0.00 in
Snow Depth Not available.
UV 0 out of 12
Pollen .10 out of 12
Air Quality Not available.
Flu Activity Not available.
METAR KCMI 270153Z 02010KT 3SM -SN BR OVC042 M02/M04 A3010 RMK AO2 SNB30 SLP204 P0000 T10171039 $

More Conditions Fewer Conditions

10-Day Weather Forecast

Almanac

Astronomy

Nov. 26, 2014 Rise Set
Actual Time
Civil Twilight
Nautical Twilight
Astronomical Twilight
Moon
Length of Visible Light
Length of Day
Tomorrow will be .
, % of the Moon is Illuminated

Today's Extremes

State Highs State Lows

Community

WunderPhotos

Upload Photos

1,773,949 photos uploaded!

WunderBlogs® & News

Nearby

Air Quality

  Air Quality AQ Index Pollutant
Not available.

Snow Depth

Station Depth Elevation

Earthquake Activity

City Distance Mag. Time & Date
Minimum magnitude displayed is 2.5.

Coastal Water Temperatures

Place Temperature

Nearby Weather Stations